createdAt,value
2018-03-23T00:00:57.272Z,973.9
2018-03-23T00:02:05.882Z,973.7
2018-03-23T00:03:08.378Z,973.9
2018-03-23T00:04:10.877Z,973.9
2018-03-23T00:05:13.303Z,973.9
2018-03-23T00:06:15.742Z,973.9
2018-03-23T00:07:18.271Z,973.9
2018-03-23T00:08:20.940Z,973.9
2018-03-23T00:09:23.467Z,973.9
2018-03-23T00:10:25.936Z,973.9
2018-03-23T00:11:28.386Z,973.9
2018-03-23T00:12:30.854Z,974
2018-03-23T00:13:38.965Z,973.9
2018-03-23T00:14:41.495Z,973.9
2018-03-23T00:15:43.908Z,973.9
2018-03-23T00:16:46.477Z,973.9
2018-03-23T00:17:48.878Z,973.9
2018-03-23T00:18:51.349Z,973.9
2018-03-23T00:19:53.803Z,973.9
2018-03-23T00:20:56.307Z,973.9
2018-03-23T00:21:58.731Z,973.9
2018-03-23T00:23:01.301Z,973.9
2018-03-23T00:24:03.765Z,973.9
2018-03-23T00:25:06.320Z,973.9
2018-03-23T00:26:08.780Z,973.8
2018-03-23T00:27:11.238Z,973.9
2018-03-23T00:28:13.751Z,973.8
2018-03-23T00:29:16.262Z,973.9
2018-03-23T00:30:18.767Z,973.9
2018-03-23T00:31:21.237Z,973.8
2018-03-23T00:32:23.799Z,973.9
2018-03-23T00:33:31.676Z,973.8
2018-03-23T00:34:34.104Z,973.8
2018-03-23T00:35:40.830Z,973.9
2018-03-23T00:36:43.315Z,973.8
2018-03-23T00:37:45.795Z,973.9
2018-03-23T00:38:48.276Z,973.8
2018-03-23T00:39:50.774Z,973.8
2018-03-23T00:40:53.150Z,973.9
2018-03-23T00:41:55.725Z,973.9
2018-03-23T00:42:58.311Z,973.9
2018-03-23T00:44:00.810Z,973.9
2018-03-23T00:45:03.317Z,973.5
2018-03-23T00:46:05.941Z,974
2018-03-23T00:47:08.573Z,973.9
2018-03-23T00:48:11.026Z,973.9
2018-03-23T00:49:13.499Z,973.9
2018-03-23T00:50:16.145Z,973.9
2018-03-23T00:51:18.563Z,973.8
2018-03-23T00:52:21.418Z,973.8
2018-03-23T00:53:23.918Z,973.8
2018-03-23T00:54:26.516Z,973.8
2018-03-23T00:55:29.095Z,973.8
2018-03-23T00:56:31.552Z,973.8
2018-03-23T00:57:34.000Z,973.8
2018-03-23T00:58:36.533Z,973.8
2018-03-23T00:59:39.085Z,973.8
2018-03-23T01:00:41.556Z,973.9
2018-03-23T01:01:44.045Z,973.8
2018-03-23T01:02:46.579Z,973.8
2018-03-23T01:03:49.076Z,973.8
2018-03-23T01:04:51.463Z,973.8
2018-03-23T01:05:54.404Z,973.8
2018-03-23T01:06:56.919Z,973.8
2018-03-23T01:07:59.668Z,973.8
2018-03-23T01:09:02.160Z,973.8
2018-03-23T01:10:04.623Z,973.8
2018-03-23T01:11:07.143Z,973.8
2018-03-23T01:12:15.788Z,973.6
2018-03-23T01:13:18.223Z,973.8
2018-03-23T01:14:20.654Z,973.8
2018-03-23T01:15:23.120Z,973.7
2018-03-23T01:16:25.726Z,973.8
2018-03-23T01:17:28.459Z,973.7
2018-03-23T01:18:30.980Z,973.7
2018-03-23T01:19:33.440Z,973.8
2018-03-23T01:20:35.950Z,973.7
2018-03-23T01:21:38.442Z,973.7
2018-03-23T01:22:44.815Z,973.7
2018-03-23T01:23:47.317Z,973.7
2018-03-23T01:24:49.742Z,973.7
2018-03-23T01:25:52.174Z,973.7
2018-03-23T01:26:54.587Z,973.5
2018-03-23T01:27:57.147Z,973.7
2018-03-23T01:28:59.568Z,973.7
2018-03-23T01:30:02.149Z,973.7
2018-03-23T01:31:04.606Z,973.7
2018-03-23T01:32:07.063Z,973.7
2018-03-23T01:33:09.544Z,973.8
2018-03-23T01:34:11.952Z,973.7
2018-03-23T01:35:14.412Z,973.7
2018-03-23T01:36:16.908Z,973.8
2018-03-23T01:37:19.342Z,973.7
2018-03-23T01:38:21.775Z,973.7
2018-03-23T01:39:24.239Z,973.7
2018-03-23T01:40:26.763Z,973.7
2018-03-23T01:41:29.262Z,973.7
2018-03-23T01:42:33.273Z,973.7
2018-03-23T01:43:35.703Z,973.7
2018-03-23T01:44:38.218Z,973.7
2018-03-23T01:45:40.673Z,973.7
2018-03-23T01:46:43.139Z,973.7
2018-03-23T01:47:45.616Z,973.7
2018-03-23T01:48:48.059Z,973.7
2018-03-23T01:49:50.491Z,973.7
2018-03-23T01:50:52.970Z,973.7
2018-03-23T01:51:55.886Z,973.7
2018-03-23T01:52:58.280Z,973.7
2018-03-23T01:54:00.825Z,973.7
2018-03-23T01:55:03.291Z,973.7
2018-03-23T01:56:05.828Z,973.7
2018-03-23T01:57:08.284Z,973.7
2018-03-23T01:58:10.694Z,973.6
2018-03-23T01:59:13.109Z,973.7
2018-03-23T02:00:15.595Z,973.7
2018-03-23T02:01:18.097Z,973.4
2018-03-23T02:02:20.549Z,973.6
2018-03-23T02:03:23.008Z,973.6
2018-03-23T02:04:25.573Z,973.6
2018-03-23T02:05:28.097Z,973.6
2018-03-23T02:06:30.521Z,973.5
2018-03-23T02:07:32.929Z,973.5
2018-03-23T02:08:35.518Z,973.6
2018-03-23T02:09:37.941Z,973.6
2018-03-23T02:10:40.375Z,973.5
2018-03-23T02:11:42.829Z,973.4
2018-03-23T02:12:45.397Z,973.5
2018-03-23T02:13:47.839Z,973.5
2018-03-23T02:14:50.287Z,973.4
2018-03-23T02:15:52.674Z,973.4
2018-03-23T02:16:55.155Z,973.4
2018-03-23T02:17:57.607Z,973.4
2018-03-23T02:19:00.046Z,973.2
2018-03-23T02:20:02.562Z,973.4
2018-03-23T02:21:05.021Z,973.4
2018-03-23T02:22:07.490Z,973.4
2018-03-23T02:23:09.923Z,973.4
2018-03-23T02:24:12.358Z,973.4
2018-03-23T02:25:14.810Z,973.3
2018-03-23T02:26:17.271Z,973.4
2018-03-23T02:27:22.336Z,973.4
2018-03-23T02:28:24.801Z,973.4
2018-03-23T02:29:27.345Z,973.3
2018-03-23T02:30:29.926Z,973.3
2018-03-23T02:31:32.440Z,973.4
2018-03-23T02:32:34.886Z,973.3
2018-03-23T02:33:37.375Z,973.3
2018-03-23T02:34:39.869Z,973.3
2018-03-23T02:35:42.591Z,973.3
2018-03-23T02:36:45.105Z,973.3
2018-03-23T02:37:47.748Z,973.2
2018-03-23T02:38:50.159Z,973.2
2018-03-23T02:39:52.658Z,973.2
2018-03-23T02:40:55.199Z,973.3
2018-03-23T02:41:57.711Z,973.2
2018-03-23T02:43:00.189Z,973.2
2018-03-23T02:44:02.715Z,973.2
2018-03-23T02:45:05.189Z,973.2
2018-03-23T02:46:07.682Z,973.1
2018-03-23T02:47:10.139Z,973.1
2018-03-23T02:48:12.601Z,973.2
2018-03-23T02:49:15.049Z,973.2
2018-03-23T02:50:17.547Z,973.2
2018-03-23T02:51:19.993Z,973.2
2018-03-23T02:52:22.466Z,973.2
2018-03-23T02:53:24.891Z,973.1
2018-03-23T02:54:27.420Z,973.1
2018-03-23T02:55:29.917Z,973.1
2018-03-23T02:56:32.337Z,973.1
2018-03-23T02:57:34.805Z,973.1
2018-03-23T02:58:39.370Z,973.1
2018-03-23T02:59:41.837Z,973.1
2018-03-23T03:00:44.296Z,973.1
2018-03-23T03:01:46.764Z,972.9
2018-03-23T03:02:49.494Z,973.1
2018-03-23T03:03:51.941Z,973.1
2018-03-23T03:04:54.425Z,973.1
2018-03-23T03:05:56.937Z,973.1
2018-03-23T03:06:59.470Z,973.1
2018-03-23T03:08:01.989Z,973.1
2018-03-23T03:09:04.414Z,973.1
2018-03-23T03:10:06.923Z,973.1
2018-03-23T03:11:09.370Z,973.1
2018-03-23T03:12:11.959Z,973
2018-03-23T03:13:14.471Z,973.1
2018-03-23T03:14:16.986Z,973.1
2018-03-23T03:15:19.417Z,973.1
2018-03-23T03:16:25.837Z,973.1
2018-03-23T22:38:35.723Z,967.6
2018-03-23T22:39:38.247Z,967.5
2018-03-23T22:40:40.717Z,967.6
2018-03-23T22:41:43.254Z,967.5
2018-03-23T22:42:45.838Z,967.5
2018-03-23T22:43:48.385Z,967.5
2018-03-23T22:44:50.901Z,967.5
2018-03-23T22:45:53.645Z,967.4
2018-03-23T22:46:56.463Z,967.5
2018-03-23T22:47:58.996Z,967.4
2018-03-23T22:49:01.757Z,967.5
2018-03-23T22:50:04.552Z,967.6
2018-03-23T22:51:07.098Z,967.6
2018-03-23T22:52:09.876Z,967.6
2018-03-23T22:53:12.662Z,967.7
2018-03-23T22:54:15.329Z,967.6
2018-03-23T22:55:17.876Z,967.6
2018-03-23T22:56:20.405Z,967.7
2018-03-23T22:57:23.084Z,967.6
2018-03-23T22:58:25.637Z,967.6
2018-03-23T22:59:28.166Z,967.7
2018-03-23T23:00:30.852Z,967.7
2018-03-23T23:01:33.453Z,967.7
2018-03-23T23:02:37.172Z,967.7
2018-03-23T23:03:39.689Z,967.7
2018-03-23T23:04:42.272Z,967.6
2018-03-23T23:05:44.744Z,967.6
2018-03-23T23:06:47.227Z,967.6
2018-03-23T23:07:49.711Z,967.7
2018-03-23T23:08:52.225Z,967.7
2018-03-23T23:09:54.786Z,967.6
2018-03-23T23:10:57.470Z,967.6
2018-03-23T23:12:00.229Z,967.6
2018-03-23T23:13:03.524Z,967.7
2018-03-23T23:14:06.190Z,967.6
2018-03-23T23:15:09.095Z,967.7
2018-03-23T23:16:11.608Z,967.7
2018-03-23T23:17:14.841Z,967.7
2018-03-23T23:18:18.285Z,967.7
2018-03-23T23:19:20.972Z,967.6
2018-03-23T23:20:23.704Z,967.4
2018-03-23T23:21:28.468Z,967.3
2018-03-23T23:22:31.016Z,967.7
2018-03-23T23:23:33.741Z,967.7
2018-03-23T23:24:36.244Z,967.7
2018-03-23T23:25:39.885Z,967.7
2018-03-23T23:26:47.520Z,967.6
2018-03-23T23:27:51.058Z,967.6
2018-03-23T23:28:53.604Z,967.6
2018-03-23T23:29:56.291Z,967.6
2018-03-23T23:30:58.754Z,967.5
2018-03-23T23:32:01.314Z,967.6
2018-03-23T23:33:04.099Z,967.6
2018-03-23T23:34:06.805Z,967.6
2018-03-23T23:35:09.354Z,967.6
2018-03-23T23:36:11.906Z,967.6
2018-03-23T23:37:14.997Z,967.6
2018-03-23T23:38:17.525Z,967.6
2018-03-23T23:39:20.023Z,967.5
2018-03-23T23:40:22.718Z,967.6
2018-03-23T23:41:26.265Z,967.2
2018-03-23T23:42:29.105Z,967.6
2018-03-23T23:43:38.449Z,967.6
2018-03-23T23:44:40.936Z,967.6
2018-03-23T23:45:43.509Z,967.6
2018-03-23T23:46:46.080Z,967.6
2018-03-23T23:47:53.014Z,967.4
2018-03-23T23:48:55.544Z,967.5
2018-03-23T23:49:58.037Z,967.5
2018-03-23T23:51:00.565Z,967.3
2018-03-23T23:52:03.974Z,967.5
2018-03-23T23:53:06.457Z,967.5
2018-03-23T23:54:08.978Z,967.5
2018-03-23T23:55:11.519Z,967.5
2018-03-23T23:56:14.050Z,967.5
2018-03-23T23:57:16.481Z,967.4
2018-03-23T23:58:19.080Z,967.4
2018-03-23T23:59:21.609Z,967.5
